MUC weather

Munich Airport
Munich, Bavaria, Germany

Public forecast

Using degrees Celsius for public forecast. Weather courtesy of forecast.io.

Current aviation weather report (METAR) for Munich Airport

Retrieved 2019/10/23 00:20 UTC (40 minutes ago):

EDDM 230020Z 09003KT 1500 R08L/1000U BR OVC001 11/11 Q1021 BECMG 1200

Aviation forecast (TAF) for Munich Airport

Retrieved 2019-10-23 00:27 UTC (33 minutes ago):

TAF EDDM 222300Z 2300/2406 08003KT 2000 BR SCT001 OVC002 TEMPO 2302/2307 0600 FG BKN001 BECMG 2308/2310 4000 BR OVC005 TEMPO 2311/2316 8000 SCT007 BECMG 2316/2318 OVC004 BECMG 2318/2320 1200 BR OVC001 BECMG 2320/2322 0400 FG